Time;durP1;ratioP1;P1;durP2;ratioP2;P2;SDS_P1;SDS_P2;PMS_P1;PMS_P2;Temp;Humidity;BMP_temperature;BMP_pressure;BME280_temperature;BME280_humidity;BME280_pressure;Samples;Min_cycle;Max_cycle;Signal;HPM_P1;HPM_P2
2021/03/02 00:01:32;;;;;;;45.30;27.65;;;;;;;9.72;56.47;102195.78;5076109;28;20047;-69
2021/03/02 00:04:06;;;;;;;45.58;27.38;;;;;;;9.66;56.38;102199.63;5075972;28;20051;-67
2021/03/02 00:06:37;;;;;;;45.97;27.63;;;;;;;9.47;56.96;102195.69;5094194;28;20047;-68
2021/03/02 00:09:07;;;;;;;44.85;28.42;;;;;;;9.57;56.79;102195.75;5059598;28;20055;-68
2021/03/02 00:11:47;;;;;;;46.13;27.45;;;;;;;9.71;56.33;102191.38;5093135;28;20043;-68
2021/03/02 00:14:16;;;;;;;43.95;27.42;;;;;;;9.86;55.78;102196.91;5073632;28;20044;-67
2021/03/02 00:16:46;;;;;;;47.95;26.75;;;;;;;9.92;55.58;102195.84;5094115;28;20048;-68
2021/03/02 00:19:15;;;;;;;44.35;27.30;;;;;;;9.88;55.71;102202.97;5075783;28;20048;-68
2021/03/02 00:21:48;;;;;;;47.00;26.83;;;;;;;9.73;56.01;102195.50;5059662;28;20064;-71
2021/03/02 00:24:27;;;;;;;45.67;26.63;;;;;;;9.77;55.78;102204.88;5075370;28;20309;-67
2021/03/02 00:26:56;;;;;;;46.50;26.77;;;;;;;9.66;56.31;102203.19;5058516;28;20067;-69
2021/03/02 00:29:32;;;;;;;43.72;25.80;;;;;;;9.77;56.28;102202.13;5092383;28;20048;-71
2021/03/02 00:31:59;;;;;;;39.30;26.10;;;;;;;9.66;56.14;102203.19;5041347;28;20048;-70
2021/03/02 00:34:26;;;;;;;46.33;27.67;;;;;;;9.59;56.12;102191.63;5092813;28;20067;-73
2021/03/02 00:36:53;;;;;;;49.10;27.77;;;;;;;9.79;56.08;102199.09;5092514;28;20056;-74
2021/03/02 00:39:20;;;;;;;44.35;26.52;;;;;;;9.81;55.83;102200.50;5058207;28;20051;-74
2021/03/02 00:41:47;;;;;;;41.10;26.55;;;;;;;9.80;55.84;102201.56;5058275;28;20051;-75
2021/03/02 00:44:14;;;;;;;44.38;26.20;;;;;;;9.81;55.78;102192.25;5057372;28;20063;-73
2021/03/02 00:46:41;;;;;;;40.75;25.35;;;;;;;9.78;56.20;102194.72;5072182;28;20502;-70
2021/03/02 00:49:12;;;;;;;46.35;26.13;;;;;;;9.76;56.31;102196.91;5075232;28;20058;-72
2021/03/02 00:51:39;;;;;;;47.55;27.27;;;;;;;9.56;56.85;102194.91;5058265;28;20063;-71
2021/03/02 00:54:06;;;;;;;41.45;26.13;;;;;;;9.59;56.57;102204.56;5074859;28;20040;-70
2021/03/02 00:56:33;;;;;;;40.05;24.95;;;;;;;9.59;56.80;102196.31;5074182;28;20479;-73
2021/03/02 00:59:00;;;;;;;43.90;25.52;;;;;;;9.56;56.86;102194.91;5057522;28;20056;-71
2021/03/02 01:01:27;;;;;;;44.47;26.38;;;;;;;9.25;57.71;102192.31;5074637;28;20074;-74
2021/03/02 01:03:55;;;;;;;46.63;25.60;;;;;;;9.38;57.63;102189.91;5057366;28;20044;-74
2021/03/02 01:06:22;;;;;;;42.65;25.50;;;;;;;9.44;57.25;102190.75;5092648;28;20056;-74
2021/03/02 01:08:49;;;;;;;44.05;26.25;;;;;;;9.36;57.73;102197.63;5074728;28;20497;-72
2021/03/02 01:11:20;;;;;;;42.65;26.40;;;;;;;9.51;57.35;102199.56;5074840;28;20044;-70
2021/03/02 01:13:50;;;;;;;43.58;25.77;;;;;;;9.28;57.81;102200.88;5091769;28;20055;-71
2021/03/02 01:16:18;;;;;;;43.85;25.77;;;;;;;9.40;57.86;102192.38;5080527;28;20396;-73
2021/03/02 01:18:45;;;;;;;42.33;26.52;;;;;;;9.55;57.30;102186.94;5072399;28;20057;-73
2021/03/02 01:25:48;;;;;;;52.45;28.48;;;;;;;9.32;57.88;102195.66;5070108;28;20468;-72
2021/03/02 01:28:15;;;;;;;56.17;35.60;;;;;;;9.44;57.68;102199.84;5072369;28;20044;-73
2021/03/02 01:30:42;;;;;;;56.45;34.67;;;;;;;9.48;57.60;102192.72;5054302;28;20499;-70
2021/03/02 01:33:13;;;;;;;43.95;26.70;;;;;;;9.18;57.97;102189.84;5071421;28;20395;-70
2021/03/02 01:35:41;;;;;;;43.65;26.83;;;;;;;8.89;59.00;102200.41;5053235;28;20040;-66
2021/03/02 01:38:17;;;;;;;43.40;25.80;;;;;;;9.13;58.43;102197.22;5071876;28;20405;-69
2021/03/02 01:40:46;;;;;;;42.08;25.02;;;;;;;9.17;58.33;102196.41;5071968;28;20045;-67
2021/03/02 01:43:34;;;;;;;43.30;25.67;;;;;;;9.24;58.16;102188.75;5054204;28;20492;-67
2021/03/02 01:46:00;;;;;;;45.40;25.35;;;;;;;9.42;57.58;102187.44;5053585;28;20407;-66
2021/03/02 01:48:32;;;;;;;42.38;25.38;;;;;;;9.34;57.58;102188.81;5072106;28;20483;-68
2021/03/02 01:51:00;;;;;;;43.13;24.00;;;;;;;9.37;57.59;102182.75;5054199;28;20049;-74
2021/03/02 01:53:27;;;;;;;43.35;25.65;;;;;;;9.32;57.95;102179.16;5054154;28;20060;-72
2021/03/02 01:55:54;;;;;;;48.63;26.25;;;;;;;9.06;58.64;102183.72;5037748;28;20055;-74
2021/03/02 01:58:30;;;;;;;42.78;25.85;;;;;;;8.85;59.14;102185.56;5057614;28;20048;-69
2021/03/02 02:01:09;;;;;;;48.22;26.52;;;;;;;8.95;59.21;102177.34;5074812;28;20055;-73
2021/03/02 02:04:04;;;;;;;45.97;25.83;;;;;;;8.84;58.87;102178.38;5075589;28;20044;-75
2021/03/02 02:06:56;;;;;;;44.97;25.98;;;;;;;8.85;59.11;102179.22;4961754;28;20066;-72
2021/03/02 02:09:53;;;;;;;43.40;25.52;;;;;;;8.88;59.32;102178.69;4994175;28;20050;-72
2021/03/02 02:12:34;;;;;;;38.83;24.42;;;;;;;9.21;58.22;102181.03;4977343;28;20050;-68
2021/03/02 02:15:12;;;;;;;42.13;25.02;;;;;;;9.21;58.24;102180.19;4993996;28;20065;-71
2021/03/02 02:18:02;;;;;;;45.78;25.02;;;;;;;8.70;59.36;102177.19;5013358;28;20061;-73
2021/03/02 02:24:46;;;;;;;47.15;25.00;;;;;;;8.56;60.08;102162.28;5013452;28;20061;-68
2021/03/02 02:27:13;;;;;;;45.92;25.45;;;;;;;8.79;59.63;102169.28;4990153;28;20420;-72
2021/03/02 02:29:40;;;;;;;40.60;25.00;;;;;;;8.71;59.63;102169.81;4997479;28;20504;-73
2021/03/02 02:32:16;;;;;;;45.53;26.02;;;;;;;8.30;60.90;102162.38;5012201;28;20062;-73
2021/03/02 02:34:44;;;;;;;44.05;25.70;;;;;;;8.43;60.65;102162.75;4980827;28;20597;-74
2021/03/02 02:37:12;;;;;;;45.42;25.23;;;;;;;8.79;59.73;102166.53;4980476;28;20441;-75
2021/03/02 02:39:40;;;;;;;47.55;26.17;;;;;;;8.59;60.36;102160.94;5012033;28;20050;-74
2021/03/02 02:42:07;;;;;;;40.33;26.20;;;;;;;8.52;60.43;102172.16;5012357;28;20050;-71
2021/03/02 02:44:34;;;;;;;39.58;25.55;;;;;;;8.71;60.01;102167.88;5068432;28;20052;-72
2021/03/02 02:47:01;;;;;;;41.38;25.80;;;;;;;8.51;60.41;102156.75;5060814;28;20044;-74
2021/03/02 02:49:30;;;;;;;45.03;26.10;;;;;;;8.38;60.86;102162.72;5060705;28;20131;-72
2021/03/02 02:52:03;;;;;;;42.47;25.10;;;;;;;8.58;60.22;102153.78;5076650;28;20051;-73
2021/03/02 02:54:36;;;;;;;44.25;24.63;;;;;;;8.67;59.93;102153.03;5078182;28;20048;-69
2021/03/02 02:57:03;;;;;;;38.95;24.77;;;;;;;8.47;60.54;102157.56;5094261;28;20047;-72
2021/03/02 02:59:33;;;;;;;41.92;24.98;;;;;;;8.28;61.17;102159.06;5032174;28;20061;-72
2021/03/02 03:02:03;;;;;;;;;;;;;;;8.16;61.58;102156.47;5073750;28;20399;-69
2021/03/02 03:04:53;;;;;;;42.03;24.17;;;;;;;8.51;61.09;102155.91;4999497;28;19944;-70
2021/03/02 03:07:28;;;;;;;43.03;23.85;;;;;;;8.69;59.96;102156.34;5085788;28;20498;-70
2021/03/02 03:09:56;;;;;;;40.03;23.35;;;;;;;8.61;60.02;102162.31;5091266;28;20048;-69
2021/03/02 03:12:25;;;;;;;47.45;24.08;;;;;;;8.73;59.95;102156.63;5059150;28;20044;-72
2021/03/02 03:14:55;;;;;;;38.92;24.05;;;;;;;8.64;60.07;102156.31;5076200;28;20055;-71
2021/03/02 03:17:22;;;;;;;40.45;23.88;;;;;;;8.67;60.30;102161.25;5076714;28;20052;-71
2021/03/02 03:19:50;;;;;;;40.63;24.17;;;;;;;8.60;60.29;102152.44;5076023;28;20487;-72
2021/03/02 03:22:17;;;;;;;45.50;25.42;;;;;;;8.72;60.05;102157.69;5076382;28;20044;-75
2021/03/02 03:24:48;;;;;;;41.90;24.40;;;;;;;8.44;60.28;102160.84;5093841;28;20087;-73
2021/03/02 03:27:15;;;;;;;40.13;23.60;;;;;;;8.62;60.16;102158.50;5076451;28;20060;-76
2021/03/02 03:29:44;;;;;;;42.00;25.00;;;;;;;8.43;60.74;102164.66;5076433;28;20059;-72
2021/03/02 03:32:14;;;;;;;45.95;25.42;;;;;;;8.56;60.34;102158.72;5076335;28;20059;-71
2021/03/02 03:34:48;;;;;;;42.42;24.65;;;;;;;8.49;60.33;102156.19;5077344;28;20044;-70
2021/03/02 03:37:30;;;;;;;44.70;25.83;;;;;;;8.39;60.73;102152.53;5063432;28;20056;-72
2021/03/02 03:39:59;;;;;;;39.83;24.02;;;;;;;8.63;60.11;102159.31;5071424;28;20040;-71
2021/03/02 03:42:26;;;;;;;39.58;24.88;;;;;;;8.56;60.50;102153.25;5075500;28;20052;-71
2021/03/02 03:45:05;;;;;;;42.35;24.40;;;;;;;8.54;60.40;102150.72;5077277;28;20052;-73
2021/03/02 03:47:50;;;;;;;42.65;25.10;;;;;;;8.49;60.53;102150.69;5101157;28;20524;-72
2021/03/02 03:50:19;;;;;;;41.50;24.23;;;;;;;8.19;61.54;102141.41;5082077;28;20480;-74
2021/03/02 03:52:50;;;;;;;41.45;24.50;;;;;;;8.21;61.46;102148.25;5057299;28;20052;-74
2021/03/02 03:55:19;;;;;;;45.67;24.77;;;;;;;8.06;62.21;102144.56;5042328;28;20056;-73
2021/03/02 03:57:47;;;;;;;48.60;26.13;;;;;;;8.25;61.52;102143.94;5100669;28;20040;-75
2021/03/02 04:00:15;;;;;;;46.10;25.13;;;;;;;8.11;61.73;102153.69;5092876;28;20078;-74
2021/03/02 04:02:46;;;;;;;45.58;25.92;;;;;;;7.83;62.88;102145.75;5058832;28;20048;-73
2021/03/02 04:05:13;;;;;;;44.83;25.13;;;;;;;8.03;62.15;102148.69;5093836;28;20044;-73
2021/03/02 04:07:42;;;;;;;44.65;25.60;;;;;;;8.22;61.62;102152.69;5059069;28;20048;-72
2021/03/02 04:10:10;;;;;;;42.55;25.23;;;;;;;8.26;61.46;102153.03;5075440;28;20052;-65
2021/03/02 04:12:41;;;;;;;45.38;24.70;;;;;;;8.30;61.19;102151.41;5058787;28;20048;-71
2021/03/02 04:15:27;;;;;;;44.33;25.10;;;;;;;8.09;62.08;102157.78;5077647;28;20071;-69
2021/03/02 04:17:56;;;;;;;45.55;25.38;;;;;;;8.06;62.03;102152.81;5092380;28;20048;-68
2021/03/02 04:20:23;;;;;;;48.22;25.92;;;;;;;7.99;62.08;102164.84;5041785;28;20101;-71
2021/03/02 04:22:57;;;;;;;44.70;25.65;;;;;;;7.82;62.81;102164.16;5076027;28;20040;-68
2021/03/02 04:25:24;;;;;;;;;;;;;;;7.66;63.54;102165.06;5075063;28;20059;-66
2021/03/02 04:27:53;;;;;;;41.95;23.95;;;;;;;7.97;62.43;102160.69;5041059;28;20287;-71
2021/03/02 04:30:21;;;;;;;43.13;25.38;;;;;;;7.99;62.32;102164.84;5093528;28;20052;-66
2021/03/02 04:32:48;;;;;;;47.00;25.85;;;;;;;7.80;62.91;102162.72;5075501;28;20052;-73
2021/03/02 04:35:15;;;;;;;41.03;24.35;;;;;;;8.12;62.50;102162.75;5075338;28;20055;-73
2021/03/02 04:37:42;;;;;;;46.75;24.98;;;;;;;8.17;61.56;102165.53;5074968;28;20059;-71
2021/03/02 04:40:10;;;;;;;44.53;24.80;;;;;;;8.14;62.05;102174.28;5092568;28;20479;-72
2021/03/02 04:42:38;;;;;;;42.65;25.38;;;;;;;7.95;62.25;102166.44;5074909;28;20055;-72
2021/03/02 04:45:06;;;;;;;46.22;25.83;;;;;;;8.01;62.20;102172.81;5069511;28;20058;-73
2021/03/02 04:47:33;;;;;;;43.88;24.58;;;;;;;8.11;62.29;102175.63;5074343;28;20044;-76
2021/03/02 04:50:21;;;;;;;44.90;25.77;;;;;;;8.25;61.72;102181.53;5092817;28;20047;-73
2021/03/02 04:52:48;;;;;;;41.72;24.10;;;;;;;8.06;62.06;102169.28;5074102;28;20055;-72
2021/03/02 04:55:15;;;;;;;45.75;25.38;;;;;;;7.72;62.88;102176.94;5057350;28;20058;-69
2021/03/02 04:57:42;;;;;;;46.78;25.73;;;;;;;7.96;62.82;102181.00;5090288;28;20051;-70
2021/03/02 05:00:10;;;;;;;41.10;25.25;;;;;;;7.92;62.86;102182.59;5074990;28;20051;-74
2021/03/02 05:02:38;;;;;;;45.90;26.42;;;;;;;8.05;62.11;102182.19;5058380;28;20048;-74
2021/03/02 05:05:06;;;;;;;45.22;25.88;;;;;;;7.82;62.68;102186.09;5074861;28;20368;-74
2021/03/02 05:07:33;;;;;;;45.17;26.75;;;;;;;7.43;64.18;102192.78;5092526;28;20406;-74
2021/03/02 05:10:00;;;;;;;49.85;26.02;;;;;;;7.72;63.64;102185.16;5092523;28;20399;-70
2021/03/02 05:12:29;;;;;;;45.55;26.20;;;;;;;7.98;63.04;102189.81;5075087;28;20055;-75
2021/03/02 05:14:59;;;;;;;43.35;25.27;;;;;;;7.92;62.75;102190.84;5059045;28;20048;-71
2021/03/02 05:17:29;;;;;;;45.92;26.85;;;;;;;7.82;62.72;102188.84;5092833;28;20047;-72
2021/03/02 05:19:56;;;;;;;50.90;26.25;;;;;;;7.82;63.43;102188.00;5074958;28;20044;-70
2021/03/02 05:22:23;;;;;;;45.72;26.42;;;;;;;7.52;63.74;102188.50;5092470;28;20044;-66
2021/03/02 05:24:52;;;;;;;50.45;27.42;;;;;;;7.40;64.43;102196.03;5091641;28;20526;-67
2021/03/02 05:27:19;;;;;;;50.72;27.73;;;;;;;7.56;64.18;102191.56;5092419;28;20048;-68
2021/03/02 05:29:46;;;;;;;44.80;26.33;;;;;;;7.53;64.50;102194.81;5092423;28;20043;-70
2021/03/02 05:32:13;;;;;;;44.90;26.10;;;;;;;7.74;63.39;102192.03;5088892;28;20048;-70
2021/03/02 05:34:40;;;;;;;47.33;25.58;;;;;;;7.95;62.68;102198.53;5096735;28;20063;-65
2021/03/02 05:37:07;;;;;;;48.75;26.10;;;;;;;7.77;62.84;102201.66;5078421;28;20418;-68
2021/03/02 05:39:37;;;;;;;49.83;27.58;;;;;;;7.59;63.63;102202.00;5094486;28;20380;-69
2021/03/02 05:42:06;;;;;;;50.10;27.02;;;;;;;7.70;63.79;102204.63;5095997;28;20048;-71
2021/03/02 05:44:33;;;;;;;43.75;26.23;;;;;;;7.64;63.49;102200.16;5096571;28;20052;-68
2021/03/02 05:47:02;;;;;;;47.28;25.73;;;;;;;7.66;63.44;102197.16;5096113;28;20056;-66
2021/03/02 05:49:30;;;;;;;55.10;27.90;;;;;;;7.68;63.45;102195.81;5095381;28;20044;-66
2021/03/02 05:51:57;;;;;;;46.33;26.33;;;;;;;7.94;62.87;102200.47;5095603;28;20059;-70
2021/03/02 05:58:59;;;;;;;47.22;25.58;;;;;;;7.82;63.00;102194.31;5095962;28;20047;-68
2021/03/02 06:01:26;;;;;;;48.17;25.77;;;;;;;7.97;62.64;102204.59;5076420;28;20048;-69
2021/03/02 06:03:53;;;;;;;43.05;26.05;;;;;;;7.92;62.67;102205.38;5077210;28;20044;-72
2021/03/02 06:06:23;;;;;;;49.25;27.05;;;;;;;7.81;62.92;102205.56;5096220;28;20044;-68
2021/03/02 06:13:26;;;;;;;45.00;26.73;;;;;;;7.26;65.04;102219.44;5076965;28;20063;-68
2021/03/02 06:15:56;;;;;;;50.50;26.13;;;;;;;7.49;64.96;102210.97;5095021;28;20052;-71
2021/03/02 06:18:26;;;;;;;49.55;27.70;;;;;;;7.56;64.37;102219.81;5075691;28;20391;-72
2021/03/02 06:21:10;;;;;;;50.85;26.85;;;;;;;7.51;64.37;102227.16;5061075;28;20066;-69
2021/03/02 06:28:01;;;;;;;48.08;26.70;;;;;;;7.21;65.48;102232.25;5095131;28;20055;-71
2021/03/02 06:30:28;;;;;;;45.97;26.75;;;;;;;7.40;65.41;102228.09;5077557;28;20044;-71
2021/03/02 06:32:56;;;;;;;51.50;26.52;;;;;;;7.64;63.93;102229.47;5077238;28;20396;-72
2021/03/02 06:35:34;;;;;;;52.35;27.88;;;;;;;7.73;64.04;102227.94;5095002;28;20048;-71
2021/03/02 06:38:02;;;;;;;46.13;26.92;;;;;;;7.79;63.62;102235.16;5095162;28;20059;-71
2021/03/02 06:40:40;;;;;;;49.20;25.73;;;;;;;7.74;63.79;102230.41;5055779;28;20052;-70
2021/03/02 06:43:34;;;;;;;52.47;28.70;;;;;;;7.88;63.82;102231.66;5075471;28;20048;-69
2021/03/02 06:46:05;;;;;;;48.88;26.23;;;;;;;8.02;62.81;102234.00;5077174;28;20463;-69
2021/03/02 06:48:57;;;;;;;47.03;27.10;;;;;;;8.02;63.21;102247.72;5077015;28;20091;-71
2021/03/02 06:51:30;;;;;;;47.38;27.42;;;;;;;8.14;62.59;102245.66;5094821;28;20036;-67
2021/03/02 06:54:13;;;;;;;45.03;26.38;;;;;;;7.79;63.68;102246.13;5095433;28;20111;-72
2021/03/02 06:56:40;;;;;;;45.15;26.02;;;;;;;7.73;63.61;102252.63;5058044;28;20048;-72
2021/03/02 06:59:27;;;;;;;47.90;26.63;;;;;;;7.80;63.58;102250.50;5095050;28;20578;-70
2021/03/02 07:01:55;;;;;;;46.78;26.38;;;;;;;7.97;62.94;102251.22;5095495;28;20044;-70
2021/03/02 07:04:28;;;;;;;50.65;27.13;;;;;;;8.07;62.76;102250.53;5094901;28;20040;-67
2021/03/02 07:07:17;;;;;;;50.47;27.10;;;;;;;7.73;63.71;102245.22;5078854;28;20052;-68
2021/03/02 07:09:48;;;;;;;47.08;26.10;;;;;;;7.89;63.39;102241.56;5078077;28;20051;-69
2021/03/02 07:12:16;;;;;;;63.60;34.75;;;;;;;8.02;63.06;102242.25;5032569;28;20061;-70
2021/03/02 07:14:47;;;;;;;57.17;32.42;;;;;;;8.05;62.80;102242.56;5015969;28;20053;-66
2021/03/02 07:17:29;;;;;;;53.15;28.90;;;;;;;7.80;63.52;102245.03;5056742;28;20053;-70
2021/03/02 07:20:01;;;;;;;43.20;26.75;;;;;;;7.85;63.84;102242.34;5040612;28;20052;-69
2021/03/02 07:22:31;;;;;;;51.83;27.73;;;;;;;8.12;62.94;102240.44;5056716;28;20411;-71
2021/03/02 07:25:03;;;;;;;54.88;29.17;;;;;;;8.35;62.30;102239.28;5074835;28;20044;-68
2021/03/02 07:27:30;;;;;;;54.83;26.65;;;;;;;8.25;62.58;102236.44;5056454;28;20051;-67
2021/03/02 07:30:01;;;;;;;71.13;28.70;;;;;;;8.16;62.75;102247.03;5056998;28;20045;-64
2021/03/02 07:32:28;;;;;;;78.55;31.02;;;;;;;8.21;62.70;102251.75;5074077;28;20049;-69
2021/03/02 07:34:57;;;;;;;98.05;33.50;;;;;;;8.32;63.06;102251.59;5057246;28;20044;-70
2021/03/02 07:37:24;;;;;;;84.70;33.13;;;;;;;8.30;62.77;102259.28;5073991;28;20072;-72
2021/03/02 07:40:00;;;;;;;77.95;32.85;;;;;;;8.25;63.49;102264.72;5055648;28;20060;-73
2021/03/02 07:42:34;;;;;;;90.93;32.47;;;;;;;8.19;63.85;102271.25;5056918;28;20043;-72
2021/03/02 07:45:09;;;;;;;89.60;34.80;;;;;;;8.17;63.64;102270.66;5072806;28;20059;-72
2021/03/02 07:47:56;;;;;;;84.22;31.45;;;;;;;8.23;63.68;102274.28;5045271;28;20051;-70
2021/03/02 07:50:27;;;;;;;79.90;31.75;;;;;;;8.04;64.17;102262.84;5071461;28;20052;-68
2021/03/02 07:53:24;;;;;;;66.82;33.17;;;;;;;8.23;63.88;102263.31;5071626;28;20055;-68
2021/03/02 07:56:12;;;;;;;54.38;30.38;;;;;;;8.25;64.35;102255.66;5072251;28;20040;-66
2021/03/02 07:58:44;;;;;;;62.47;31.80;;;;;;;8.11;64.70;102263.44;5053457;28;20060;-71
2021/03/02 08:01:21;;;;;;;73.60;31.48;;;;;;;8.27;64.00;102259.81;5037826;28;20060;-73
2021/03/02 08:03:49;;;;;;;95.05;32.63;;;;;;;8.70;63.21;102262.34;5072140;28;20041;-65
2021/03/02 08:06:22;;;;;;;78.38;32.35;;;;;;;8.80;62.53;102267.91;5038437;28;20472;-70
2021/03/02 08:08:49;;;;;;;;;;;;;;;8.89;62.67;102258.09;5053990;28;20056;-73
2021/03/02 08:11:35;;;;;;;69.10;30.95;;;;;;;8.86;62.26;102261.38;5072026;28;20279;-70
2021/03/02 08:14:17;;;;;;;69.57;30.98;;;;;;;9.27;63.43;102267.97;5053989;28;20049;-69
2021/03/02 08:16:55;;;;;;;66.78;32.55;;;;;;;9.28;61.93;102266.03;5070896;28;20048;-73
2021/03/02 08:19:39;;;;;;;79.25;35.65;;;;;;;9.39;61.53;102271.31;5072194;28;20403;-69
2021/03/02 08:22:22;;;;;;;59.85;30.75;;;;;;;9.48;61.43;102283.47;5072357;28;20045;-68
2021/03/02 08:29:16;;;;;;;258.65;48.83;;;;;;;9.17;61.96;102280.81;5070837;28;20052;-69
2021/03/02 08:31:46;;;;;;;168.98;43.35;;;;;;;9.12;62.06;102276.09;5037194;28;20083;-67
2021/03/02 08:34:14;;;;;;;;;;;;;;;9.17;61.84;102286.31;5071508;28;20048;-72
2021/03/02 08:36:47;;;;;;;113.25;39.15;;;;;;;9.08;62.11;102281.31;5036085;28;20100;-68
2021/03/02 08:39:22;;;;;;;112.82;37.72;;;;;;;9.50;60.90;102285.94;5051858;28;20373;-70
2021/03/02 08:41:49;;;;;;;84.38;34.50;;;;;;;9.28;61.13;102294.34;5070989;28;20055;-69
2021/03/02 08:44:21;;;;;;;62.45;31.80;;;;;;;9.02;61.95;102296.13;5054049;28;20048;-69
2021/03/02 08:46:50;;;;;;;67.82;31.60;;;;;;;9.27;61.13;102295.47;5071590;28;20539;-71
2021/03/02 08:49:18;;;;;;;98.38;37.70;;;;;;;9.13;61.97;102288.78;5053158;28;20052;-70
2021/03/02 08:51:59;;;;;;;62.88;32.42;;;;;;;9.54;60.84;102298.03;5071311;28;20052;-70
2021/03/02 08:54:27;;;;;;;55.88;31.83;;;;;;;9.58;60.56;102296.44;5036762;28;20045;-66
2021/03/02 08:57:04;;;;;;;55.45;31.38;;;;;;;9.40;60.84;102296.88;5068996;28;20059;-69
2021/03/02 08:59:32;;;;;;;55.97;32.13;;;;;;;9.26;61.36;102301.22;5070326;28;20052;-70
2021/03/02 09:01:59;;;;;;;49.70;31.83;;;;;;;9.25;61.62;102305.06;5070672;28;20048;-67
2021/03/02 09:04:31;;;;;;;53.92;31.15;;;;;;;9.24;61.73;102306.16;5052001;28;20059;-66
2021/03/02 09:06:59;;;;;;;55.03;31.45;;;;;;;9.22;61.97;102302.84;5041287;28;20416;-63
2021/03/02 09:09:27;;;;;;;64.40;30.90;;;;;;;9.37;61.35;102300.16;5034856;28;20044;-71
2021/03/02 09:16:32;;;;;;;78.78;34.80;;;;;;;9.51;61.39;102309.59;5081488;28;20047;-70
2021/03/02 09:19:10;;;;;;;;;;;;;;;9.56;60.59;102313.19;5055368;28;20407;-72
2021/03/02 09:21:40;;;;;;;56.65;31.13;;;;;;;9.48;60.75;102307.38;5072787;28;19944;-72
2021/03/02 09:24:13;;;;;;;53.42;32.47;;;;;;;9.72;60.40;102309.44;5090204;28;20127;-68
2021/03/02 09:26:40;;;;;;;51.45;31.20;;;;;;;9.68;60.07;102304.72;5091222;28;20399;-73
2021/03/02 09:29:09;;;;;;;56.47;31.67;;;;;;;9.79;60.08;102311.94;5090573;28;20051;-70
2021/03/02 09:31:36;;;;;;;56.08;31.52;;;;;;;9.78;60.24;102313.84;5090159;28;20175;-70
2021/03/02 09:34:04;;;;;;;48.85;31.52;;;;;;;9.80;60.52;102316.31;5090496;28;20482;-69
2021/03/02 09:36:31;;;;;;;56.10;31.25;;;;;;;9.82;60.25;102305.88;5072797;28;20098;-68
2021/03/02 09:39:18;;;;;;;63.58;32.92;;;;;;;9.87;60.93;102305.88;5055856;28;20063;-70
2021/03/02 09:41:49;;;;;;;54.47;30.38;;;;;;;10.09;59.71;102312.88;5056649;28;20044;-68
2021/03/02 09:44:20;;;;;;;;;;;;;;;10.36;59.34;102307.16;5090970;28;20122;-70
2021/03/02 09:46:52;;;;;;;55.13;29.80;;;;;;;10.33;59.17;102312.38;5090691;28;20274;-66
2021/03/02 09:50:00;;;;;;;54.90;29.73;;;;;;;10.40;58.54;102310.19;5053373;28;20055;-68
2021/03/02 09:52:42;;;;;;;51.72;29.38;;;;;;;10.89;57.91;102311.31;5072383;28;20456;-68
2021/03/02 09:59:39;;;;;;;52.38;30.08;;;;;;;10.83;57.31;102315.16;5089068;28;20044;-72
2021/03/02 10:02:09;;;;;;;59.65;30.08;;;;;;;10.77;57.19;102319.88;5054802;28;20055;-71
2021/03/02 10:04:40;;;;;;;53.80;31.30;;;;;;;10.61;57.58;102312.69;5090120;28;20060;-68
2021/03/02 10:07:11;;;;;;;49.90;30.27;;;;;;;10.89;57.38;102325.94;5089359;28;20047;-68
2021/03/02 10:09:47;;;;;;;63.55;32.00;;;;;;;10.89;57.12;102327.84;5088759;28;20048;-71
2021/03/02 10:16:48;;;;;;;50.97;29.02;;;;;;;10.91;56.55;102331.97;5090272;28;20044;-74
2021/03/02 10:19:17;;;;;;;52.55;29.02;;;;;;;11.13;56.69;102338.03;5094419;28;20048;-70
2021/03/02 10:22:00;;;;;;;52.40;30.02;;;;;;;11.23;56.49;102337.19;5093445;28;20048;-70
2021/03/02 10:24:29;;;;;;;59.50;30.70;;;;;;;11.20;56.37;102333.06;5094009;28;20399;-71
2021/03/02 10:31:37;;;;;;;44.03;29.40;;;;;;;11.33;56.06;102337.97;5076004;28;20048;-71
2021/03/02 10:34:10;;;;;;;48.63;31.48;;;;;;;11.27;56.50;102333.59;5075899;28;20044;-70
2021/03/02 10:36:40;;;;;;;58.65;31.00;;;;;;;11.67;55.71;102331.84;5093925;28;20040;-68
2021/03/02 10:39:17;;;;;;;59.55;32.55;;;;;;;11.44;55.91;102335.22;5093628;28;20044;-69
2021/03/02 10:41:45;;;;;;;50.10;31.77;;;;;;;11.46;55.71;102328.31;5093471;28;20340;-68
2021/03/02 10:44:12;;;;;;;51.00;31.65;;;;;;;11.78;54.94;102330.72;5075441;28;20808;-70
2021/03/02 10:46:41;;;;;;;57.47;32.17;;;;;;;11.64;54.76;102327.75;5093259;28;20059;-70
2021/03/02 10:49:09;;;;;;;53.47;32.33;;;;;;;11.48;55.64;102322.50;5076056;28;20052;-69
2021/03/02 10:51:36;;;;;;;63.35;32.30;;;;;;;11.10;56.77;102337.75;5093948;28;20490;-69
2021/03/02 10:54:04;;;;;;;48.90;32.58;;;;;;;11.37;56.32;102329.19;5082743;28;20403;-77
2021/03/02 10:56:33;;;;;;;57.30;31.40;;;;;;;11.65;55.22;102334.06;5086118;28;20115;-70
2021/03/02 10:59:05;;;;;;;56.88;31.90;;;;;;;11.80;55.02;102322.97;5092922;28;20395;-69
2021/03/02 11:01:32;;;;;;;58.45;33.35;;;;;;;12.08;54.41;102322.31;5093862;28;20056;-72
2021/03/02 11:04:03;;;;;;;;;;;;;;;11.75;54.96;102325.78;5093998;28;20044;-70
2021/03/02 11:06:31;;;;;;;62.22;32.80;;;;;;;11.78;55.14;102316.91;5093633;28;19930;-72
2021/03/02 11:09:00;;;;;;;;;;;;;;;11.75;54.87;102325.78;5094169;28;20047;-69
2021/03/02 11:11:30;;;;;;;51.65;31.98;;;;;;;11.86;54.84;102319.91;5092186;28;19939;-70
2021/03/02 11:13:57;;;;;;;51.30;31.92;;;;;;;12.10;54.13;102325.59;5075238;28;20056;-68
2021/03/02 11:16:25;;;;;;;54.85;32.33;;;;;;;12.03;54.53;102314.84;5074703;28;20047;-68
2021/03/02 11:18:54;;;;;;;51.47;32.08;;;;;;;12.26;53.88;102318.84;5093584;28;20051;-73
2021/03/02 11:21:22;;;;;;;53.70;31.38;;;;;;;12.51;53.63;102312.34;5075069;28;20047;-68
2021/03/02 11:23:49;;;;;;;55.17;32.63;;;;;;;12.50;53.11;102308.75;5093603;28;20052;-70
2021/03/02 11:26:18;;;;;;;61.38;32.20;;;;;;;12.70;52.61;102308.59;5092823;28;20040;-70
2021/03/02 11:28:45;;;;;;;64.47;32.47;;;;;;;12.62;52.66;102309.22;5093388;28;20044;-72
2021/03/02 11:31:12;;;;;;;60.35;32.63;;;;;;;12.73;52.53;102302.47;5093121;28;20055;-74
2021/03/02 11:33:39;;;;;;;50.83;31.20;;;;;;;12.97;51.53;102305.34;5058028;28;20048;-69
2021/03/02 11:36:07;;;;;;;56.97;31.52;;;;;;;12.87;51.97;102297.94;5092260;28;20052;-69
2021/03/02 11:38:42;;;;;;;52.95;31.25;;;;;;;12.98;51.61;102302.28;5092883;28;20048;-73
2021/03/02 11:41:12;;;;;;;53.80;30.33;;;;;;;13.29;51.33;102300.03;5093113;28;20060;-70
2021/03/02 11:48:10;;;;;;;57.40;30.15;;;;;;;13.35;50.91;102296.13;5093223;28;20401;-67
2021/03/02 11:50:56;;;;;;;47.08;29.73;;;;;;;13.31;51.10;102287.56;5091531;28;20055;-68
2021/03/02 11:53:23;;;;;;;54.25;29.58;;;;;;;13.60;50.57;102295.00;5091462;28;20048;-70
2021/03/02 11:55:56;;;;;;;47.28;27.83;;;;;;;13.99;50.21;102293.66;5090941;28;20075;-70
2021/03/02 12:03:00;;;;;;;50.25;28.50;;;;;;;14.09;49.31;102287.13;5072621;28;20062;-71
2021/03/02 12:05:27;;;;;;;45.70;28.63;;;;;;;13.96;49.56;102280.41;5072566;28;20055;-70
2021/03/02 12:07:56;;;;;;;55.88;29.48;;;;;;;14.06;49.36;102277.47;5091114;28;20048;-69
2021/03/02 12:10:27;;;;;;;49.35;29.90;;;;;;;13.97;49.13;102279.25;5073354;28;20048;-68
2021/03/02 12:17:26;;;;;;;46.95;27.60;;;;;;;14.11;48.48;102268.25;5090469;28;20399;-67
2021/03/02 12:19:59;;;;;;;60.65;28.83;;;;;;;14.19;48.61;102267.59;5073073;28;20051;-68
2021/03/02 12:22:32;;;;;;;47.28;28.13;;;;;;;14.36;47.93;102259.59;5089427;28;20074;-68
2021/03/02 12:24:59;;;;;;;48.10;28.60;;;;;;;14.52;47.74;102252.69;5089733;28;20056;-69
2021/03/02 12:31:58;;;;;;;49.70;26.75;;;;;;;15.04;47.23;102249.53;5090895;28;20369;-67
2021/03/02 12:34:27;;;;;;;57.70;28.70;;;;;;;14.99;46.50;102246.03;5055554;28;20048;-70
2021/03/02 12:36:57;;;;;;;;;;;;;;;15.08;46.49;102241.44;5091613;28;20050;-68
2021/03/02 12:39:24;;;;;;;45.90;27.10;;;;;;;15.19;46.47;102238.13;5088778;28;20355;-67